KBFL

Meadows Field Airport

Bakersfield, California, USA
METAR KBFL 230254Z 32007KT 10SM CLR 28/09 A2977 RMK AO2 SLP074 T02830094 53004
Observed Flight Rules
May-23 @ 02:54 UTC (18 minutes ago) Visual Flight Rules
Wind Visibility Clouds
320° at 7 knots 10 miles
  • Clear skies
Temperatures Readings
Current 28°C / 82°F
Dewpoint 9°C / 48°F
Humidity 30%
Altimeter 29.77" Hg
Pressure 1007.4 hPa
Elevation 151
METAR KBFL 230254Z 32007KT 10SM CLR 28/09 A2977 RMK AO2 SLP074 T02830094 53004
Observed Flight Rules
May-23 @ 02:54 UTC
(18 minutes ago)
VFR
Wind Visibility
320° at 7 knots 10 miles
Clouds
  • Clear skies
Temperature Dewpoint
28°C / 82°F 9°C / 48°F
Humidity Altimeter Pressure
30% 29.77" Hg 1007.4 hPa